Kagoshima, Japan
Current Conditions -  °F | °C
As of 5:00 PM on Thursday 23 Oct 2014 (Local Time) from RJFK Reporting Station
Few Clouds Few Clouds  
Wind Chill: 68°   Ceiling: Unl
Heat Index: 68°   Visibility: 6mi
Dew Point: 55°   Wind: 5mph
Humidity: 64%   Direction: 190°S
Pressure: 30"   Gusts: NA
Location:  31.59°N, 130.56°E
Report Text: RJFK 230800Z 19004KT 9999 FEW035 20/13 Q1016
Loading
Personal Weather Stations






























Interactive Weather Map
Tropical Storm Tracking
New forecast layout! Learn more

10-Day Weather Forecast

Advertisements
Track Severe Weather on mobile